CST,Max TemperatureF,Mean TemperatureF,Min TemperatureF,Max Dew PointF,MeanDew PointF,Min DewpointF,Max Humidity, Mean Humidity, Min Humidity, Max Sea Level PressureIn, Mean Sea Level PressureIn, Min Sea Level PressureIn, Max VisibilityMiles, Mean VisibilityMiles, Min VisibilityMiles, Max Wind SpeedMPH, Mean Wind SpeedMPH, Max Gust SpeedMPH,PrecipitationIn, CloudCover, Events, WindDirDegrees
2013-1-1,19,12,4,13,8,2,92,77,62,30.28,30.21,30.15,10,10,10,10,7,,0.00,2,,320
2013-1-2,30,18,5,22,13,2,91,78,65,30.22,30.14,30.08,10,10,10,15,6,,0.00,2,,188
2013-1-3,29,20,10,26,19,7,90,81,63,30.35,30.25,30.12,10,10,10,20,9,25,0.00,4,,270
2013-1-4,33,20,8,25,18,6,90,82,70,30.33,30.26,30.22,10,10,10,15,8,21,0.00,0,,216
2013-1-5,36,26,17,33,26,16,99,90,80,30.23,30.11,29.98,10,10,1,18,8,26,0.00,5,Rain-Snow,194
2013-1-6,31,23,15,26,18,14,95,84,71,30.33,30.20,29.99,10,10,7,25,14,30,0.00,4,,273
2013-1-7,39,28,16,28,22,14,91,79,58,30.31,30.19,30.09,10,10,7,17,8,24,0.00,0,,170
2013-1-8,43,35,27,32,28,24,93,77,61,30.12,30.07,30.01,10,10,7,16,8,22,0.00,1,,167
2013-1-9,46,36,26,34,30,26,100,81,59,30.49,30.33,30.05,10,10,7,17,8,24,0.00,0,,261
2013-1-10,41,34,28,41,31,25,100,85,59,30.46,30.15,29.78,10,6,0,14,7,23,0.73,5,Fog-Rain,108
2013-1-11,53,48,42,49,45,42,100,91,77,29.80,29.71,29.65,10,6,0,17,9,24,0.14,5,Fog-Rain,176
2013-1-12,51,36,21,46,30,19,94,82,73,30.02,29.91,29.69,10,8,1,22,12,28,0.03,4,Snow,283
2013-1-13,21,14,7,19,10,4,91,79,70,30.28,30.12,29.94,10,10,7,17,11,23,0.00,5,Snow,295
2013-1-14,22,13,4,10,7,2,93,79,55,30.47,30.42,30.28,10,10,10,8,4,,0.00,0,,282
2013-1-15,27,16,4,14,9,2,94,80,54,30.42,30.32,30.14,10,10,10,6,1,,0.00,0,,146
2013-1-16,35,21,7,30,18,5,92,77,61,30.13,30.01,29.89,10,10,10,20,7,28,0.00,3,,213
2013-1-17,34,24,15,32,20,12,94,74,53,30.42,30.32,30.09,10,10,10,16,8,21,0.00,1,,315
2013-1-18,47,32,17,32,26,15,93,71,53,30.42,30.17,29.96,10,10,10,26,10,36,0.00,1,,187
2013-1-19,51,39,25,37,31,13,80,69,50,30.12,29.92,29.81,10,10,10,29,15,40,0.00,0,,236
2013-1-20,24,18,12,12,9,6,84,73,56,30.35,30.29,30.13,10,9,2,24,15,33,0.00,5,Snow,298
2013-1-21,12,8,2,8,-1,-5,82,69,50,30.35,30.30,30.24,10,10,2,24,17,33,0.00,2,Snow,282
2013-1-22,13,6,-1,2,-3,-8,80,63,47,30.43,30.37,30.34,10,10,10,14,8,18,0.00,2,,281
2013-1-23,32,22,12,17,8,1,71,60,44,30.39,30.24,30.11,10,10,10,22,8,30,0.00,4,,246
2013-1-24,22,14,5,10,2,-4,73,57,40,30.62,30.47,30.25,10,10,10,14,10,18,0.00,0,,72
2013-1-25,37,27,16,21,13,7,78,58,41,30.25,30.12,30.02,10,10,10,23,9,28,0.00,3,,247
2013-1-26,31,18,6,15,9,3,86,62,40,30.40,30.32,30.24,10,10,10,12,6,,0.00,1,,106
2013-1-27,42,34,27,43,28,15,100,85,61,30.30,30.06,29.85,10,6,0,13,9,22,0.21,7,Fog-Rain-Snow-Thunderstorm,137
2013-1-28,54,45,42,55,46,43,100,98,92,29.94,29.85,29.73,7,2,0,17,10,22,0.01,8,Fog,148
2013-1-29,61,58,55,59,57,54,100,95,87,29.72,29.57,29.43,10,7,0,21,12,29,0.89,7,Rain-Thunderstorm,201
2013-1-30,36,26,16,36,26,11,100,92,79,29.79,29.49,29.28,10,6,1,30,14,37,0.16,8,Rain-Snow,306
2013-1-31,20,12,4,18,6,-2,89,78,68,30.28,30.01,29.80,10,8,2,28,18,34,0.00,7,Snow,280